createdAt,value
2018-10-04T00:00:06.269Z,1002.79
2018-10-04T00:01:06.452Z,1002.81
2018-10-04T00:02:06.627Z,1002.81
2018-10-04T00:03:06.797Z,1002.81
2018-10-04T00:04:06.970Z,1002.81
2018-10-04T00:05:07.143Z,1002.87
2018-10-04T00:06:07.325Z,1002.87
2018-10-04T00:07:07.499Z,1002.88
2018-10-04T00:08:07.677Z,1002.94
2018-10-04T00:09:07.840Z,1002.94
2018-10-04T00:10:08.029Z,1002.91
2018-10-04T00:11:08.186Z,1002.96
2018-10-04T00:12:08.368Z,1002.97
2018-10-04T00:13:08.535Z,1002.98
2018-10-04T00:14:08.719Z,1002.94
2018-10-04T00:15:08.891Z,1002.96
2018-10-04T00:16:09.066Z,1002.99
2018-10-04T00:17:09.245Z,1002.99
2018-10-04T00:18:09.408Z,1002.94
2018-10-04T00:19:09.582Z,1002.98
2018-10-04T00:20:09.759Z,1002.93
2018-10-04T00:21:09.938Z,1002.94
2018-10-04T00:22:10.101Z,1002.94
2018-10-04T00:23:10.275Z,1002.94
2018-10-04T00:24:10.448Z,1002.92
2018-10-04T00:25:10.624Z,1002.94
2018-10-04T00:26:10.795Z,1002.94
2018-10-04T00:27:10.953Z,1002.89
2018-10-04T00:28:11.139Z,1002.96
2018-10-04T00:29:11.305Z,1002.94
2018-10-04T00:30:11.481Z,1002.92
2018-10-04T00:31:11.654Z,1002.90
2018-10-04T00:32:11.820Z,1002.94
2018-10-04T00:33:11.993Z,1002.90
2018-10-04T00:34:12.168Z,1002.89
2018-10-04T00:35:12.343Z,1002.92
2018-10-04T00:36:12.518Z,1002.89
2018-10-04T00:37:12.696Z,1002.90
2018-10-04T00:38:12.874Z,1002.90
2018-10-04T00:39:13.043Z,1002.89
2018-10-04T00:40:13.214Z,1002.91
2018-10-04T00:41:13.454Z,1002.88
2018-10-04T00:42:13.562Z,1002.84
2018-10-04T00:43:13.739Z,1002.85
2018-10-04T00:44:13.911Z,1002.85
2018-10-04T00:45:14.085Z,1002.85
2018-10-04T00:46:14.263Z,1002.85
2018-10-04T00:47:14.424Z,1002.85
2018-10-04T00:48:14.611Z,1002.86
2018-10-04T00:49:14.782Z,1002.86
2018-10-04T00:50:14.944Z,1002.90
2018-10-04T00:51:15.118Z,1002.87
2018-10-04T00:52:15.294Z,1002.86
2018-10-04T00:53:15.470Z,1002.89
2018-10-04T00:54:15.641Z,1002.82
2018-10-04T00:55:15.819Z,1002.86
2018-10-04T00:56:15.993Z,1002.84
2018-10-04T00:57:16.165Z,1002.85
2018-10-04T00:58:16.343Z,1002.82
2018-10-04T00:59:16.521Z,1002.83
2018-10-04T01:00:16.697Z,1002.78
2018-10-04T01:01:16.872Z,1002.78
2018-10-04T01:02:17.048Z,1002.80
2018-10-04T01:03:17.212Z,1002.77
2018-10-04T01:04:17.388Z,1002.76
2018-10-04T01:05:17.653Z,1002.79
2018-10-04T01:06:17.733Z,1002.80
2018-10-04T01:07:17.916Z,1002.78
2018-10-04T01:08:18.082Z,1002.77
2018-10-04T01:09:18.266Z,1002.79
2018-10-04T01:10:18.433Z,1002.76
2018-10-04T01:11:18.618Z,1002.74
2018-10-04T01:12:18.779Z,1002.78
2018-10-04T01:13:18.954Z,1002.74
2018-10-04T01:14:19.129Z,1002.74
2018-10-04T01:15:19.302Z,1002.72
2018-10-04T01:16:19.474Z,1002.75
2018-10-04T01:17:19.651Z,1002.73
2018-10-04T01:18:19.824Z,1002.71
2018-10-04T01:19:19.999Z,1002.71
2018-10-04T01:20:20.177Z,1002.70
2018-10-04T01:21:20.355Z,1002.67
2018-10-04T01:22:20.527Z,1002.70
2018-10-04T01:23:20.699Z,1002.64
2018-10-04T01:24:20.879Z,1002.70
2018-10-04T01:25:21.044Z,1002.66
2018-10-04T01:26:21.219Z,1002.66
2018-10-04T01:27:21.400Z,1002.70
2018-10-04T01:28:21.564Z,1002.72
2018-10-04T01:29:21.736Z,1002.66
2018-10-04T01:30:21.934Z,1002.69
2018-10-04T01:31:22.135Z,1002.70
2018-10-04T01:32:22.273Z,1002.67
2018-10-04T01:33:22.437Z,1002.67
2018-10-04T01:34:22.609Z,1002.71
2018-10-04T01:35:22.793Z,1002.64
2018-10-04T01:36:22.966Z,1002.66
2018-10-04T01:37:23.142Z,1002.65
2018-10-04T01:38:23.306Z,1002.63
2018-10-04T01:39:23.473Z,1002.63
2018-10-04T01:40:23.646Z,1002.63
2018-10-04T01:41:23.819Z,1002.65
2018-10-04T01:42:24.001Z,1002.69
2018-10-04T01:44:24.346Z,1002.70
2018-10-04T01:45:24.514Z,1002.66
2018-10-04T01:46:24.685Z,1002.73
2018-10-04T01:47:24.862Z,1002.66
2018-10-04T01:48:25.034Z,1002.70
2018-10-04T01:49:25.206Z,1002.72
2018-10-04T01:50:25.380Z,1002.68
2018-10-04T01:51:25.554Z,1002.73
2018-10-04T01:52:25.713Z,1002.73
2018-10-04T01:53:25.895Z,1002.68
2018-10-04T01:54:26.090Z,1002.70
2018-10-04T01:55:26.251Z,1002.74
2018-10-04T01:56:26.414Z,1002.72
2018-10-04T01:57:26.589Z,1002.77
2018-10-04T01:58:26.751Z,1002.73
2018-10-04T01:59:26.923Z,1002.77
2018-10-04T02:00:27.097Z,1002.75
2018-10-04T02:01:27.272Z,1002.74
2018-10-04T02:02:27.445Z,1002.75
2018-10-04T02:03:27.625Z,1002.75
2018-10-04T02:04:27.792Z,1002.73
2018-10-04T02:05:27.970Z,1002.73
2018-10-04T02:06:28.136Z,1002.74
2018-10-04T02:07:28.307Z,1002.70
2018-10-04T02:08:28.482Z,1002.75
2018-10-04T02:09:28.656Z,1002.68
2018-10-04T02:10:28.831Z,1002.73
2018-10-04T02:11:29.003Z,1002.75
2018-10-04T02:12:29.173Z,1002.71
2018-10-04T02:13:29.348Z,1002.75
2018-10-04T02:14:29.519Z,1002.73
2018-10-04T02:15:29.693Z,1002.73
2018-10-04T02:16:29.866Z,1002.73
2018-10-04T02:17:30.040Z,1002.71
2018-10-04T02:18:30.216Z,1002.74
2018-10-04T02:19:30.421Z,1002.73
2018-10-04T02:20:30.573Z,1002.75
2018-10-04T02:21:30.752Z,1002.74
2018-10-04T02:22:30.923Z,1002.74
2018-10-04T02:23:31.091Z,1002.73
2018-10-04T02:24:31.265Z,1002.73
2018-10-04T02:25:31.439Z,1002.71
2018-10-04T02:26:31.615Z,1002.71
2018-10-04T02:27:31.782Z,1002.67
2018-10-04T02:28:31.949Z,1002.71
2018-10-04T02:29:32.126Z,1002.70
2018-10-04T02:30:32.299Z,1002.70
2018-10-04T02:31:32.475Z,1002.72
2018-10-04T02:32:32.650Z,1002.71
2018-10-04T02:33:32.828Z,1002.72
2018-10-04T02:34:32.996Z,1002.74
2018-10-04T02:35:33.169Z,1002.70
2018-10-04T02:36:33.345Z,1002.70
2018-10-04T02:37:33.516Z,1002.71
2018-10-04T02:38:33.691Z,1002.71
2018-10-04T02:39:33.864Z,1002.68
2018-10-04T02:40:34.046Z,1002.72
2018-10-04T02:41:34.210Z,1002.69
2018-10-04T02:42:34.538Z,1002.71
2018-10-04T02:43:34.552Z,1002.71
2018-10-04T02:44:34.728Z,1002.72
2018-10-04T02:45:34.906Z,1002.72
2018-10-04T02:46:35.073Z,1002.75
2018-10-04T02:47:35.250Z,1002.77
2018-10-04T02:48:35.459Z,1002.75
2018-10-04T02:49:35.600Z,1002.79
2018-10-04T02:50:35.769Z,1002.81
2018-10-04T02:51:35.943Z,1002.79
2018-10-04T02:52:36.116Z,1002.80
2018-10-04T02:53:36.296Z,1002.84
2018-10-04T02:54:36.470Z,1002.82
2018-10-04T02:55:36.632Z,1002.82
2018-10-04T02:56:36.806Z,1002.85
2018-10-04T02:57:36.980Z,1002.86
2018-10-04T02:58:37.154Z,1002.84
2018-10-04T02:59:37.361Z,1002.87
2018-10-04T03:00:37.498Z,1002.82
2018-10-04T03:01:37.674Z,1002.86
2018-10-04T03:02:37.858Z,1002.85
2018-10-04T03:03:38.022Z,1002.85
2018-10-04T03:04:38.196Z,1002.85
2018-10-04T03:05:38.364Z,1002.83
2018-10-04T03:06:38.534Z,1002.79
2018-10-04T03:07:38.710Z,1002.83
2018-10-04T03:08:38.889Z,1002.78
2018-10-04T03:09:39.059Z,1002.83
2018-10-04T03:10:39.236Z,1002.80
2018-10-04T03:11:39.409Z,1002.81
2018-10-04T03:12:39.580Z,1002.84
2018-10-04T03:13:39.753Z,1002.85
2018-10-04T03:14:39.931Z,1002.81
2018-10-04T03:15:40.101Z,1002.84
2018-10-04T03:16:40.275Z,1002.82
2018-10-04T03:17:40.446Z,1002.81
2018-10-04T03:18:40.622Z,1002.82
2018-10-04T03:19:40.798Z,1002.79
2018-10-04T03:20:40.988Z,1002.84
2018-10-04T03:21:41.141Z,1002.81
2018-10-04T03:22:41.317Z,1002.83
2018-10-04T03:23:41.490Z,1002.82
2018-10-04T03:24:41.660Z,1002.84
2018-10-04T03:25:41.837Z,1002.81
2018-10-04T03:26:42.006Z,1002.76
2018-10-04T03:27:42.178Z,1002.77
2018-10-04T03:28:42.353Z,1002.77
2018-10-04T03:29:42.531Z,1002.78
2018-10-04T03:30:42.703Z,1002.81
2018-10-04T03:31:42.880Z,1002.78
2018-10-04T03:32:43.051Z,1002.78
2018-10-04T03:33:43.219Z,1002.76
2018-10-04T03:34:43.400Z,1002.72
2018-10-04T03:35:43.568Z,1002.76
2018-10-04T03:36:43.740Z,1002.73
2018-10-04T03:37:43.930Z,1002.70
2018-10-04T03:38:44.085Z,1002.71
2018-10-04T03:39:44.256Z,1002.74
2018-10-04T03:40:44.438Z,1002.75
2018-10-04T03:41:44.612Z,1002.71
2018-10-04T03:42:44.776Z,1002.65
2018-10-04T03:43:44.948Z,1002.74
2018-10-04T03:44:45.123Z,1002.72
2018-10-04T03:45:45.298Z,1002.74
2018-10-04T03:46:45.473Z,1002.71
2018-10-04T03:47:45.646Z,1002.70
2018-10-04T03:48:45.819Z,1002.66
2018-10-04T03:49:45.989Z,1002.69
2018-10-04T03:50:46.166Z,1002.70
2018-10-04T03:51:46.336Z,1002.66
2018-10-04T03:52:46.507Z,1002.71
2018-10-04T03:53:46.678Z,1002.69
2018-10-04T03:54:46.854Z,1002.73
2018-10-04T03:55:47.061Z,1002.79
2018-10-04T03:56:47.187Z,1002.79
2018-10-04T03:57:47.351Z,1002.79
2018-10-04T03:58:47.517Z,1002.78
2018-10-04T03:59:47.690Z,1002.78
2018-10-04T04:00:47.859Z,1002.82
2018-10-04T04:01:48.030Z,1002.80
2018-10-04T04:02:48.203Z,1002.79
2018-10-04T04:03:48.426Z,1002.76
2018-10-04T04:04:48.555Z,1002.79
2018-10-04T04:05:48.723Z,1002.75
2018-10-04T04:06:48.894Z,1002.75
2018-10-04T04:07:49.070Z,1002.75
2018-10-04T04:08:49.239Z,1002.77
2018-10-04T04:09:49.415Z,1002.77
2018-10-04T04:10:49.588Z,1002.79
2018-10-04T04:11:49.843Z,1002.81
2018-10-04T04:12:49.932Z,1002.83
2018-10-04T04:13:50.103Z,1002.83
2018-10-04T04:14:50.283Z,1002.79
2018-10-04T04:15:50.451Z,1002.74
2018-10-04T04:16:50.624Z,1002.81
2018-10-04T04:17:50.795Z,1002.73
2018-10-04T04:18:50.974Z,1002.76
2018-10-04T04:19:51.146Z,1002.79
2018-10-04T04:20:51.322Z,1002.73
2018-10-04T04:21:51.489Z,1002.75
2018-10-04T04:22:51.662Z,1002.77
2018-10-04T04:23:51.839Z,1002.79
2018-10-04T04:24:52.015Z,1002.80
2018-10-04T04:25:52.179Z,1002.81
2018-10-04T04:26:52.350Z,1002.80
2018-10-04T04:27:52.522Z,1002.80
2018-10-04T04:28:52.698Z,1002.79
2018-10-04T04:29:52.863Z,1002.76
2018-10-04T04:30:53.036Z,1002.82
2018-10-04T04:31:53.222Z,1002.78
2018-10-04T04:32:53.384Z,1002.77
2018-10-04T04:33:53.563Z,1002.78
2018-10-04T04:34:53.729Z,1002.79
2018-10-04T04:35:53.901Z,1002.76
2018-10-04T04:36:54.077Z,1002.82
2018-10-04T04:37:54.244Z,1002.83
2018-10-04T04:38:54.417Z,1002.81
2018-10-04T04:39:54.594Z,1002.84
2018-10-04T04:40:54.821Z,1002.84
2018-10-04T04:41:54.943Z,1002.85
2018-10-04T04:42:55.109Z,1002.84
2018-10-04T04:43:55.285Z,1002.86
2018-10-04T04:44:55.461Z,1002.86
2018-10-04T04:45:55.631Z,1002.87
2018-10-04T04:46:55.860Z,1002.85
2018-10-04T04:47:55.966Z,1002.91
2018-10-04T04:48:56.146Z,1002.90
2018-10-04T04:49:56.328Z,1002.91
2018-10-04T04:50:56.493Z,1002.90
2018-10-04T04:51:56.687Z,1002.90
2018-10-04T04:52:56.920Z,1002.91
2018-10-04T04:53:57.009Z,1002.87
2018-10-04T04:54:57.185Z,1002.87
2018-10-04T04:55:57.360Z,1002.90
2018-10-04T04:56:57.532Z,1002.90
2018-10-04T04:57:57.709Z,1002.92
2018-10-04T04:58:57.885Z,1002.89
2018-10-04T04:59:58.053Z,1002.91
2018-10-04T05:00:58.230Z,1002.91
2018-10-04T05:01:58.399Z,1002.92
2018-10-04T05:02:58.577Z,1002.91
2018-10-04T05:03:58.744Z,1002.88
2018-10-04T05:04:58.919Z,1002.88
2018-10-04T05:05:59.146Z,1002.83
2018-10-04T05:06:59.266Z,1002.87
2018-10-04T05:07:59.436Z,1002.85
2018-10-04T05:08:59.609Z,1002.91
2018-10-04T05:09:59.782Z,1002.91
2018-10-04T05:10:59.957Z,1002.92
2018-10-04T05:12:00.128Z,1002.91
2018-10-04T05:13:00.302Z,1002.93
2018-10-04T05:14:00.475Z,1002.93
2018-10-04T05:15:00.650Z,1002.93
2018-10-04T05:16:00.887Z,1002.94
2018-10-04T05:17:00.999Z,1002.94
2018-10-04T05:18:01.169Z,1002.92
2018-10-04T05:19:01.338Z,1002.89
2018-10-04T05:20:01.512Z,1002.91
2018-10-04T05:21:01.685Z,1002.88
2018-10-04T05:22:01.865Z,1002.84
2018-10-04T05:23:02.036Z,1002.87
2018-10-04T05:24:02.204Z,1002.90
2018-10-04T05:25:02.376Z,1002.91
2018-10-04T05:26:02.547Z,1002.90
2018-10-04T05:27:02.719Z,1002.90
2018-10-04T05:28:02.896Z,1002.86
2018-10-04T05:29:03.066Z,1002.86
2018-10-04T05:30:03.241Z,1002.87
2018-10-04T05:31:03.420Z,1002.85
2018-10-04T05:32:03.591Z,1002.86
2018-10-04T05:33:03.775Z,1002.82
2018-10-04T05:34:03.936Z,1002.84
2018-10-04T05:35:04.101Z,1002.86
2018-10-04T05:36:04.270Z,1002.91
2018-10-04T05:37:04.513Z,1002.92
2018-10-04T05:38:04.619Z,1002.87
2018-10-04T05:39:04.790Z,1002.90
2018-10-04T05:40:04.964Z,1002.90
2018-10-04T05:41:05.140Z,1002.89
2018-10-04T05:42:05.312Z,1002.85
2018-10-04T05:43:05.481Z,1002.90
2018-10-04T05:44:05.658Z,1002.86
2018-10-04T05:45:05.951Z,1002.89
2018-10-04T05:46:06.019Z,1002.86
2018-10-04T05:47:06.177Z,1002.86
2018-10-04T05:48:06.353Z,1002.91
2018-10-04T05:49:06.523Z,1002.91
2018-10-04T05:50:06.696Z,1002.91
2018-10-04T05:51:06.871Z,1002.90
2018-10-04T05:52:07.042Z,1002.95
2018-10-04T05:53:07.397Z,1002.96
2018-10-04T05:54:07.395Z,1002.94
2018-10-04T05:55:07.558Z,1002.89
2018-10-04T05:56:07.733Z,1002.90
2018-10-04T05:57:07.902Z,1002.88
2018-10-04T05:58:08.074Z,1002.90
2018-10-04T05:59:08.337Z,1002.89
2018-10-04T06:00:08.422Z,1002.96
2018-10-04T06:01:08.599Z,1002.92
2018-10-04T06:02:08.782Z,1002.93
2018-10-04T06:03:08.943Z,1002.93
2018-10-04T06:04:09.114Z,1002.96
2018-10-04T06:05:09.415Z,1002.99
2018-10-04T06:06:09.462Z,1003.00
2018-10-04T06:07:09.633Z,1002.97
2018-10-04T06:08:09.808Z,1003.00
2018-10-04T06:09:09.974Z,1003.04
2018-10-04T06:10:10.148Z,1003.00
2018-10-04T06:11:10.321Z,1003.03
2018-10-04T06:12:10.495Z,1003.07
2018-10-04T06:13:10.678Z,1003.06
2018-10-04T06:14:10.831Z,1003.03
2018-10-04T06:15:11.266Z,1003.03
2018-10-04T06:16:12.182Z,1003.01
2018-10-04T06:17:11.391Z,1002.98
2018-10-04T06:18:11.568Z,1002.99
2018-10-04T06:19:11.745Z,1003.04
2018-10-04T06:20:11.917Z,1003.02
2018-10-04T06:21:12.096Z,1003.04
2018-10-04T06:22:12.269Z,1003.01
2018-10-04T06:23:12.447Z,1003.00
2018-10-04T06:24:12.632Z,1003.00
2018-10-04T06:25:12.799Z,1003.00
2018-10-04T06:26:12.983Z,1002.99
2018-10-04T06:27:13.146Z,1002.95
2018-10-04T06:28:13.325Z,1002.96
2018-10-04T06:29:13.497Z,1003.01
2018-10-04T06:30:13.676Z,1003.07
2018-10-04T06:31:13.842Z,1003.11
2018-10-04T06:32:14.015Z,1003.09
2018-10-04T06:33:14.188Z,1003.08
2018-10-04T06:34:14.365Z,1003.03
2018-10-04T06:35:14.599Z,1003.07
2018-10-04T06:36:14.707Z,1003.04
2018-10-04T06:37:14.884Z,1003.11
2018-10-04T06:38:15.057Z,1003.14
2018-10-04T06:39:15.229Z,1003.15
2018-10-04T06:40:15.438Z,1003.15
2018-10-04T06:41:15.574Z,1003.18
2018-10-04T06:42:15.742Z,1003.17
2018-10-04T06:43:16.042Z,1003.17
2018-10-04T06:44:16.194Z,1003.19
2018-10-04T06:45:16.311Z,1003.17
2018-10-04T06:46:16.623Z,1003.19
2018-10-04T06:47:16.722Z,1003.19
2018-10-04T06:48:16.866Z,1003.23
2018-10-04T06:49:17.034Z,1003.19
2018-10-04T06:50:17.234Z,1003.21
2018-10-04T06:51:17.386Z,1003.18
2018-10-04T06:52:17.571Z,1003.20
2018-10-04T06:53:17.732Z,1003.23
2018-10-04T06:54:17.943Z,1003.23
2018-10-04T06:55:18.084Z,1003.19
2018-10-04T06:56:18.260Z,1003.19
2018-10-04T06:57:18.445Z,1003.22
2018-10-04T06:58:18.720Z,1003.27
2018-10-04T06:59:18.802Z,1003.27
2018-10-04T07:00:18.964Z,1003.30
2018-10-04T07:01:19.144Z,1003.29
2018-10-04T07:02:19.320Z,1003.32
2018-10-04T07:03:19.503Z,1003.27
2018-10-04T07:04:19.678Z,1003.29
2018-10-04T07:05:19.857Z,1003.28
2018-10-04T07:06:20.033Z,1003.31
2018-10-04T07:07:20.207Z,1003.33
2018-10-04T07:08:20.393Z,1003.31
2018-10-04T07:09:20.572Z,1003.31
2018-10-04T07:10:20.747Z,1003.33
2018-10-04T07:11:20.920Z,1003.30
2018-10-04T07:12:21.087Z,1003.36
2018-10-04T07:13:21.264Z,1003.36
2018-10-04T07:14:21.442Z,1003.40
2018-10-04T07:15:21.622Z,1003.42
2018-10-04T07:16:21.792Z,1003.42
2018-10-04T07:17:21.965Z,1003.41
2018-10-04T07:18:22.141Z,1003.43
2018-10-04T07:19:22.311Z,1003.42
2018-10-04T07:20:22.500Z,1003.42
2018-10-04T07:21:22.671Z,1003.43
2018-10-04T07:22:22.839Z,1003.43
2018-10-04T07:23:23.022Z,1003.41
2018-10-04T07:24:23.197Z,1003.42
2018-10-04T07:25:23.355Z,1003.39
2018-10-04T07:26:23.523Z,1003.41
2018-10-04T07:27:23.693Z,1003.35
2018-10-04T07:28:23.878Z,1003.40
2018-10-04T07:29:24.041Z,1003.40
2018-10-04T07:30:24.215Z,1003.39
2018-10-04T07:31:24.389Z,1003.37
2018-10-04T07:32:24.564Z,1003.41
2018-10-04T07:33:24.735Z,1003.40
2018-10-04T07:34:24.980Z,1003.39
2018-10-04T07:35:25.118Z,1003.45
2018-10-04T07:36:25.289Z,1003.41
2018-10-04T07:37:25.512Z,1003.47
2018-10-04T07:38:25.626Z,1003.43
2018-10-04T07:39:25.814Z,1003.39
2018-10-04T07:40:25.984Z,1003.43
2018-10-04T07:41:26.161Z,1003.43
2018-10-04T07:42:26.492Z,1003.42
2018-10-04T07:43:26.524Z,1003.41
2018-10-04T07:44:26.689Z,1003.42
2018-10-04T07:45:26.890Z,1003.40
2018-10-04T07:46:27.064Z,1003.43
2018-10-04T07:47:27.240Z,1003.46
2018-10-04T07:48:27.412Z,1003.43
2018-10-04T07:49:27.589Z,1003.47
2018-10-04T07:50:27.767Z,1003.45
2018-10-04T07:51:27.946Z,1003.46
2018-10-04T07:52:28.111Z,1003.49
2018-10-04T07:53:28.283Z,1003.44
2018-10-04T07:54:28.456Z,1003.44
2018-10-04T07:55:28.626Z,1003.45
2018-10-04T07:56:29.752Z,1003.49
2018-10-04T07:57:28.993Z,1003.47
2018-10-04T07:58:29.157Z,1003.52
2018-10-04T07:59:29.336Z,1003.50
2018-10-04T08:00:29.506Z,1003.49
2018-10-04T08:01:29.678Z,1003.50
2018-10-04T08:02:29.867Z,1003.50
2018-10-04T08:03:30.033Z,1003.57
2018-10-04T08:04:30.203Z,1003.56
2018-10-04T08:05:30.377Z,1003.56
2018-10-04T08:06:30.751Z,1003.55
2018-10-04T08:07:30.736Z,1003.56
2018-10-04T08:08:30.900Z,1003.56
2018-10-04T08:09:31.080Z,1003.63
2018-10-04T08:10:31.247Z,1003.61
2018-10-04T08:11:31.409Z,1003.59
2018-10-04T08:12:31.582Z,1003.56
2018-10-04T08:13:31.766Z,1003.61
2018-10-04T08:14:31.929Z,1003.57
2018-10-04T08:15:32.251Z,1003.61
2018-10-04T08:16:32.281Z,1003.57
2018-10-04T08:17:32.454Z,1003.63
2018-10-04T08:18:32.631Z,1003.67
2018-10-04T08:19:32.806Z,1003.67
2018-10-04T08:20:32.970Z,1003.68
2018-10-04T08:21:33.130Z,1003.63
2018-10-04T08:22:33.307Z,1003.64
2018-10-04T08:23:33.495Z,1003.66
2018-10-04T08:24:33.674Z,1003.62
2018-10-04T08:25:33.827Z,1003.65
2018-10-04T08:26:33.997Z,1003.69
2018-10-04T08:27:34.208Z,1003.73
2018-10-04T08:28:34.341Z,1003.73
2018-10-04T08:29:34.505Z,1003.75
2018-10-04T08:30:34.680Z,1003.76
2018-10-04T08:31:34.872Z,1003.73
2018-10-04T08:32:35.036Z,1003.74
2018-10-04T08:33:35.232Z,1003.74
2018-10-04T08:34:35.432Z,1003.77
2018-10-04T08:35:35.556Z,1003.78
2018-10-04T08:36:35.726Z,1003.78
2018-10-04T08:37:35.913Z,1003.79
2018-10-04T08:38:36.085Z,1003.77
2018-10-04T08:39:36.261Z,1003.78
2018-10-04T08:40:36.436Z,1003.77
2018-10-04T08:41:36.642Z,1003.86
2018-10-04T08:42:36.869Z,1003.86
2018-10-04T08:43:36.949Z,1003.77
2018-10-04T08:44:37.127Z,1003.79
2018-10-04T08:45:37.292Z,1003.78
2018-10-04T08:46:37.467Z,1003.76
2018-10-04T08:47:37.642Z,1003.79
2018-10-04T08:48:37.820Z,1003.81
2018-10-04T08:49:37.996Z,1003.76
2018-10-04T08:50:38.177Z,1003.81
2018-10-04T08:51:38.358Z,1003.73
2018-10-04T08:52:38.535Z,1003.76
2018-10-04T08:54:38.881Z,1003.77
2018-10-04T08:55:39.078Z,1003.80
2018-10-04T08:56:39.243Z,1003.83
2018-10-04T08:57:39.421Z,1003.79
2018-10-04T08:58:39.596Z,1003.79
2018-10-04T08:59:39.914Z,1003.78
2018-10-04T09:00:39.976Z,1003.69
2018-10-04T09:01:40.156Z,1003.68
2018-10-04T09:02:40.326Z,1003.70
2018-10-04T09:03:40.504Z,1003.70
2018-10-04T09:04:40.711Z,1003.74
2018-10-04T09:05:40.864Z,1003.74
2018-10-04T09:06:41.048Z,1003.72
2018-10-04T09:07:41.377Z,1003.69
2018-10-04T09:08:41.379Z,1003.76
2018-10-04T09:09:41.550Z,1003.72
2018-10-04T09:10:41.740Z,1003.75
2018-10-04T09:11:41.913Z,1003.71
2018-10-04T09:12:42.090Z,1003.69
2018-10-04T09:13:42.337Z,1003.68
2018-10-04T09:14:42.507Z,1003.69
2018-10-04T09:15:42.683Z,1003.72
2018-10-04T09:16:42.861Z,1003.69
2018-10-04T09:17:43.040Z,1003.72
2018-10-04T09:18:43.205Z,1003.68
2018-10-04T09:19:43.383Z,1003.68
2018-10-04T09:20:43.569Z,1003.66
2018-10-04T09:21:43.739Z,1003.62
2018-10-04T09:22:43.913Z,1003.64
2018-10-04T09:23:44.101Z,1003.66
2018-10-04T09:24:44.248Z,1003.63
2018-10-04T09:25:44.428Z,1003.63
2018-10-04T09:26:44.604Z,1003.62
2018-10-04T09:27:44.778Z,1003.63
2018-10-04T09:28:44.957Z,1003.65
2018-10-04T09:29:45.135Z,1003.64
2018-10-04T09:30:45.321Z,1003.60
2018-10-04T09:31:45.496Z,1003.62
2018-10-04T09:32:45.668Z,1003.59
2018-10-04T09:33:45.842Z,1003.56
2018-10-04T09:34:46.036Z,1003.57
2018-10-04T09:35:46.239Z,1003.59
2018-10-04T09:36:47.302Z,1003.62
2018-10-04T09:37:46.489Z,1003.60
2018-10-04T09:38:46.660Z,1003.58
2018-10-04T09:39:46.847Z,1003.65
2018-10-04T09:40:47.004Z,1003.61
2018-10-04T09:41:47.181Z,1003.62
2018-10-04T09:42:47.372Z,1003.58
2018-10-04T09:43:47.534Z,1003.58
2018-10-04T09:44:47.699Z,1003.56
2018-10-04T09:45:47.892Z,1003.54
2018-10-04T09:46:48.060Z,1003.53
2018-10-04T09:47:48.237Z,1003.54
2018-10-04T09:48:48.416Z,1003.54
2018-10-04T09:49:48.592Z,1003.51
2018-10-04T09:50:48.760Z,1003.51
2018-10-04T09:51:48.938Z,1003.51
2018-10-04T09:52:49.113Z,1003.51
2018-10-04T09:53:49.310Z,1003.52
2018-10-04T09:54:49.477Z,1003.52
2018-10-04T09:55:49.655Z,1003.56
2018-10-04T09:56:49.831Z,1003.55
2018-10-04T09:57:50.013Z,1003.54
2018-10-04T09:58:50.191Z,1003.56
2018-10-04T09:59:50.392Z,1003.59
2018-10-04T10:00:50.546Z,1003.54
2018-10-04T10:01:50.727Z,1003.54
2018-10-04T10:02:50.908Z,1003.56
2018-10-04T10:03:51.075Z,1003.56
2018-10-04T10:04:51.258Z,1003.51
2018-10-04T10:05:51.460Z,1003.53
2018-10-04T10:06:51.598Z,1003.53
2018-10-04T10:07:51.781Z,1003.47
2018-10-04T10:08:51.967Z,1003.52
2018-10-04T10:09:52.138Z,1003.53
2018-10-04T10:10:52.320Z,1003.49
2018-10-04T10:11:52.544Z,1003.48
2018-10-04T10:12:52.674Z,1003.45
2018-10-04T10:13:52.851Z,1003.47
2018-10-04T10:14:53.233Z,1003.46
2018-10-04T10:15:53.165Z,1003.50
2018-10-04T10:16:53.356Z,1003.49
2018-10-04T10:17:53.530Z,1003.47
2018-10-04T10:18:53.705Z,1003.47
2018-10-04T10:19:53.890Z,1003.45
2018-10-04T10:20:54.118Z,1003.50
2018-10-04T10:21:54.238Z,1003.49
2018-10-04T10:22:54.411Z,1003.45
2018-10-04T10:23:54.589Z,1003.48
2018-10-04T10:24:54.769Z,1003.46
2018-10-04T10:25:54.944Z,1003.46
2018-10-04T10:26:55.123Z,1003.47
2018-10-04T10:27:55.301Z,1003.45
2018-10-04T10:28:55.474Z,1003.45
2018-10-04T10:29:55.654Z,1003.48
2018-10-04T10:30:55.830Z,1003.47
2018-10-04T10:31:56.005Z,1003.50
2018-10-04T10:32:56.190Z,1003.48
2018-10-04T10:33:56.362Z,1003.46
2018-10-04T10:34:56.538Z,1003.45
2018-10-04T10:35:56.707Z,1003.51
2018-10-04T10:36:56.894Z,1003.48
2018-10-04T10:37:57.068Z,1003.48
2018-10-04T10:38:57.247Z,1003.50
2018-10-04T10:39:57.515Z,1003.48
2018-10-04T10:40:57.601Z,1003.48
2018-10-04T10:41:57.780Z,1003.51
2018-10-04T10:42:57.960Z,1003.46
2018-10-04T10:43:58.155Z,1003.45
2018-10-04T10:44:58.327Z,1003.44
2018-10-04T10:45:58.500Z,1003.41
2018-10-04T10:46:58.686Z,1003.41
2018-10-04T10:47:58.865Z,1003.35
2018-10-04T10:48:59.034Z,1003.40
2018-10-04T10:49:59.216Z,1003.39
2018-10-04T10:50:59.405Z,1003.36
2018-10-04T10:52:00.256Z,1003.37
2018-10-04T10:52:59.744Z,1003.39
2018-10-04T10:53:59.925Z,1003.36
2018-10-04T10:55:01.499Z,1003.38
2018-10-04T10:56:00.315Z,1003.35
2018-10-04T10:57:00.482Z,1003.34
2018-10-04T10:58:00.655Z,1003.38
2018-10-04T10:59:00.837Z,1003.36
2018-10-04T11:00:01.021Z,1003.32
2018-10-04T11:01:01.239Z,1003.36
2018-10-04T11:02:01.338Z,1003.33
2018-10-04T11:03:01.521Z,1003.32
2018-10-04T11:04:01.702Z,1003.30
2018-10-04T11:05:01.880Z,1003.31
2018-10-04T11:06:02.073Z,1003.32
2018-10-04T11:08:02.430Z,1003.30
2018-10-04T11:09:02.671Z,1003.30
2018-10-04T11:10:02.878Z,1003.28
2018-10-04T11:11:03.006Z,1003.31
2018-10-04T11:12:03.195Z,1003.30
2018-10-04T11:13:03.343Z,1003.28
2018-10-04T11:14:03.523Z,1003.21
2018-10-04T11:15:03.701Z,1003.27
2018-10-04T11:16:03.881Z,1003.26
2018-10-04T11:17:04.194Z,1003.21
2018-10-04T11:18:04.322Z,1003.19
2018-10-04T11:19:04.421Z,1003.22
2018-10-04T11:20:04.607Z,1003.18
2018-10-04T11:21:04.796Z,1003.17
2018-10-04T11:22:04.969Z,1003.17
2018-10-04T11:23:05.157Z,1003.18
2018-10-04T11:24:05.321Z,1003.16
2018-10-04T11:25:05.522Z,1003.17
2018-10-04T11:26:05.689Z,1003.13
2018-10-04T11:27:05.874Z,1003.14
2018-10-04T11:28:06.050Z,1003.16
2018-10-04T11:29:06.263Z,1003.13
2018-10-04T11:30:06.418Z,1003.09
2018-10-04T11:31:06.589Z,1003.10
2018-10-04T11:32:06.786Z,1003.07
2018-10-04T11:33:07.028Z,1003.08
2018-10-04T11:34:07.156Z,1003.08
2018-10-04T11:35:07.336Z,1003.05
2018-10-04T11:36:07.550Z,1003.07
2018-10-04T11:37:07.683Z,1003.06
2018-10-04T11:38:07.867Z,1003.07
2018-10-04T11:39:08.080Z,1003.08
2018-10-04T11:40:08.239Z,1003.01
2018-10-04T11:41:08.409Z,1003.04
2018-10-04T11:42:08.590Z,1003.00
2018-10-04T11:43:08.803Z,1002.98
2018-10-04T11:44:08.941Z,1002.97
2018-10-04T11:45:09.122Z,1002.96
2018-10-04T11:46:09.293Z,1002.98
2018-10-04T11:47:09.503Z,1002.96
2018-10-04T11:48:09.652Z,1002.93
2018-10-04T11:49:09.842Z,1002.98
2018-10-04T11:50:10.015Z,1002.95
2018-10-04T11:51:10.190Z,1003.02
2018-10-04T11:52:10.377Z,1002.96
2018-10-04T11:53:10.556Z,1002.96
2018-10-04T11:54:10.726Z,1002.97
2018-10-04T11:55:10.905Z,1002.96
2018-10-04T11:56:11.088Z,1002.98
2018-10-04T11:57:11.266Z,1002.95
2018-10-04T11:58:11.442Z,1002.98
2018-10-04T11:59:11.629Z,1002.94
2018-10-04T12:00:11.857Z,1002.91
2018-10-04T12:01:12.099Z,1002.91
2018-10-04T12:02:12.152Z,1002.91
2018-10-04T12:03:12.329Z,1002.88
2018-10-04T12:04:12.532Z,1002.85
2018-10-04T12:05:12.680Z,1002.85
2018-10-04T12:06:12.857Z,1002.80
2018-10-04T12:07:13.062Z,1002.80
2018-10-04T12:08:13.215Z,1002.83
2018-10-04T12:09:13.395Z,1002.79
2018-10-04T12:10:13.567Z,1002.80